sensor_id;sensor_type;location;lat;lon;timestamp;P1;durP1;ratioP1;P2;durP2;ratioP2
23506;SDS011;11930;53.076;18.250;2023-05-08T00:01:48;10.23;;;5.10;;
23506;SDS011;11930;53.076;18.250;2023-05-08T00:04:14;8.67;;;5.43;;
23506;SDS011;11930;53.076;18.250;2023-05-08T00:06:40;9.53;;;4.97;;
23506;SDS011;11930;53.076;18.250;2023-05-08T00:09:06;9.27;;;4.90;;
23506;SDS011;11930;53.076;18.250;2023-05-08T00:11:32;8.70;;;5.20;;
23506;SDS011;11930;53.076;18.250;2023-05-08T00:13:58;8.50;;;5.00;;
23506;SDS011;11930;53.076;18.250;2023-05-08T00:16:24;8.63;;;5.00;;
23506;SDS011;11930;53.076;18.250;2023-05-08T00:18:50;9.13;;;4.67;;
23506;SDS011;11930;53.076;18.250;2023-05-08T00:21:17;8.93;;;4.57;;
23506;SDS011;11930;53.076;18.250;2023-05-08T00:23:43;8.20;;;4.10;;
23506;SDS011;11930;53.076;18.250;2023-05-08T00:26:09;7.53;;;4.70;;
23506;SDS011;11930;53.076;18.250;2023-05-08T00:28:35;8.07;;;4.77;;
23506;SDS011;11930;53.076;18.250;2023-05-08T00:31:01;9.20;;;4.90;;
23506;SDS011;11930;53.076;18.250;2023-05-08T00:33:27;8.00;;;4.70;;
23506;SDS011;11930;53.076;18.250;2023-05-08T00:35:59;8.70;;;5.07;;
23506;SDS011;11930;53.076;18.250;2023-05-08T00:38:30;8.67;;;4.23;;
23506;SDS011;11930;53.076;18.250;2023-05-08T00:40:56;7.47;;;4.80;;
23506;SDS011;11930;53.076;18.250;2023-05-08T00:43:23;9.63;;;4.93;;
23506;SDS011;11930;53.076;18.250;2023-05-08T00:45:53;8.10;;;4.50;;
23506;SDS011;11930;53.076;18.250;2023-05-08T00:48:21;8.13;;;4.73;;
23506;SDS011;11930;53.076;18.250;2023-05-08T00:50:49;6.70;;;4.37;;
23506;SDS011;11930;53.076;18.250;2023-05-08T00:53:17;8.13;;;4.63;;
23506;SDS011;11930;53.076;18.250;2023-05-08T00:55:44;9.07;;;4.47;;
23506;SDS011;11930;53.076;18.250;2023-05-08T00:58:11;8.80;;;5.07;;
23506;SDS011;11930;53.076;18.250;2023-05-08T01:00:40;12.60;;;4.67;;
23506;SDS011;11930;53.076;18.250;2023-05-08T01:03:08;8.13;;;4.53;;
23506;SDS011;11930;53.076;18.250;2023-05-08T01:05:35;6.97;;;4.80;;
23506;SDS011;11930;53.076;18.250;2023-05-08T01:08:01;8.07;;;4.57;;
23506;SDS011;11930;53.076;18.250;2023-05-08T01:10:38;7.53;;;4.57;;
23506;SDS011;11930;53.076;18.250;2023-05-08T01:16:08;6.53;;;4.07;;
23506;SDS011;11930;53.076;18.250;2023-05-08T01:18:51;10.20;;;4.80;;
23506;SDS011;11930;53.076;18.250;2023-05-08T01:21:27;8.40;;;4.73;;
23506;SDS011;11930;53.076;18.250;2023-05-08T01:29:42;7.87;;;4.30;;
23506;SDS011;11930;53.076;18.250;2023-05-08T01:32:33;8.60;;;5.00;;
23506;SDS011;11930;53.076;18.250;2023-05-08T01:38:10;7.77;;;4.77;;
23506;SDS011;11930;53.076;18.250;2023-05-08T01:41:15;9.50;;;5.03;;
23506;SDS011;11930;53.076;18.250;2023-05-08T01:46:49;10.43;;;5.30;;
23506;SDS011;11930;53.076;18.250;2023-05-08T01:51:55;8.97;;;5.27;;
23506;SDS011;11930;53.076;18.250;2023-05-08T01:54:27;10.13;;;5.17;;
23506;SDS011;11930;53.076;18.250;2023-05-08T01:57:05;11.30;;;5.80;;
23506;SDS011;11930;53.076;18.250;2023-05-08T01:59:34;11.17;;;5.77;;
23506;SDS011;11930;53.076;18.250;2023-05-08T02:02:02;12.63;;;5.80;;
23506;SDS011;11930;53.076;18.250;2023-05-08T02:04:30;8.30;;;4.97;;
23506;SDS011;11930;53.076;18.250;2023-05-08T02:06:59;9.43;;;5.53;;
23506;SDS011;11930;53.076;18.250;2023-05-08T02:09:26;12.23;;;5.13;;
23506;SDS011;11930;53.076;18.250;2023-05-08T02:11:54;10.83;;;5.50;;
23506;SDS011;11930;53.076;18.250;2023-05-08T02:14:21;9.07;;;5.07;;
23506;SDS011;11930;53.076;18.250;2023-05-08T02:16:48;7.17;;;4.57;;
23506;SDS011;11930;53.076;18.250;2023-05-08T02:19:16;8.87;;;5.17;;
23506;SDS011;11930;53.076;18.250;2023-05-08T02:21:44;8.97;;;5.07;;
23506;SDS011;11930;53.076;18.250;2023-05-08T02:24:11;8.23;;;5.13;;
23506;SDS011;11930;53.076;18.250;2023-05-08T02:26:38;8.83;;;5.20;;
23506;SDS011;11930;53.076;18.250;2023-05-08T02:29:06;7.70;;;4.87;;
23506;SDS011;11930;53.076;18.250;2023-05-08T02:31:34;8.77;;;5.10;;
23506;SDS011;11930;53.076;18.250;2023-05-08T02:34:00;9.60;;;5.07;;
23506;SDS011;11930;53.076;18.250;2023-05-08T02:36:28;10.13;;;5.67;;
23506;SDS011;11930;53.076;18.250;2023-05-08T02:38:57;8.53;;;5.63;;
23506;SDS011;11930;53.076;18.250;2023-05-08T02:41:25;8.27;;;5.63;;
23506;SDS011;11930;53.076;18.250;2023-05-08T02:43:54;12.40;;;7.00;;
23506;SDS011;11930;53.076;18.250;2023-05-08T02:46:28;10.53;;;6.23;;
23506;SDS011;11930;53.076;18.250;2023-05-08T02:49:12;9.30;;;5.17;;
23506;SDS011;11930;53.076;18.250;2023-05-08T02:51:49;10.57;;;5.40;;
23506;SDS011;11930;53.076;18.250;2023-05-08T02:54:23;10.80;;;5.50;;
23506;SDS011;11930;53.076;18.250;2023-05-08T02:57:41;12.03;;;5.90;;
23506;SDS011;11930;53.076;18.250;2023-05-08T02:59:53;12.97;;;6.27;;
23506;SDS011;11930;53.076;18.250;2023-05-08T03:05:02;16.73;;;7.37;;
23506;SDS011;11930;53.076;18.250;2023-05-08T03:07:39;13.77;;;6.57;;
23506;SDS011;11930;53.076;18.250;2023-05-08T03:10:09;13.90;;;7.10;;
23506;SDS011;11930;53.076;18.250;2023-05-08T03:12:39;11.43;;;5.97;;
23506;SDS011;11930;53.076;18.250;2023-05-08T03:15:10;11.00;;;6.10;;
23506;SDS011;11930;53.076;18.250;2023-05-08T03:17:42;13.33;;;7.07;;
23506;SDS011;11930;53.076;18.250;2023-05-08T03:20:13;12.43;;;6.20;;
23506;SDS011;11930;53.076;18.250;2023-05-08T03:22:42;15.60;;;7.23;;
23506;SDS011;11930;53.076;18.250;2023-05-08T03:25:10;15.73;;;6.87;;
23506;SDS011;11930;53.076;18.250;2023-05-08T03:27:38;21.60;;;7.10;;
23506;SDS011;11930;53.076;18.250;2023-05-08T03:30:05;18.77;;;8.47;;
23506;SDS011;11930;53.076;18.250;2023-05-08T03:32:36;19.23;;;7.87;;
23506;SDS011;11930;53.076;18.250;2023-05-08T03:35:04;27.10;;;7.87;;
23506;SDS011;11930;53.076;18.250;2023-05-08T03:37:31;17.83;;;7.40;;
23506;SDS011;11930;53.076;18.250;2023-05-08T03:39:58;17.30;;;7.90;;
23506;SDS011;11930;53.076;18.250;2023-05-08T03:42:24;15.47;;;7.80;;
23506;SDS011;11930;53.076;18.250;2023-05-08T03:44:51;17.93;;;8.23;;
23506;SDS011;11930;53.076;18.250;2023-05-08T03:47:18;31.73;;;13.70;;
23506;SDS011;11930;53.076;18.250;2023-05-08T03:49:45;27.93;;;12.53;;
23506;SDS011;11930;53.076;18.250;2023-05-08T03:52:14;24.73;;;11.67;;
23506;SDS011;11930;53.076;18.250;2023-05-08T03:54:40;20.33;;;10.70;;
23506;SDS011;11930;53.076;18.250;2023-05-08T03:57:07;20.53;;;10.73;;
23506;SDS011;11930;53.076;18.250;2023-05-08T04:02:16;18.93;;;10.17;;
23506;SDS011;11930;53.076;18.250;2023-05-08T04:05:09;25.03;;;9.80;;
23506;SDS011;11930;53.076;18.250;2023-05-08T04:07:52;25.47;;;10.97;;
23506;SDS011;11930;53.076;18.250;2023-05-08T04:10:29;24.70;;;10.63;;
23506;SDS011;11930;53.076;18.250;2023-05-08T04:13:06;26.17;;;11.23;;
23506;SDS011;11930;53.076;18.250;2023-05-08T04:15:51;29.77;;;11.77;;
23506;SDS011;11930;53.076;18.250;2023-05-08T04:18:33;22.10;;;10.80;;
23506;SDS011;11930;53.076;18.250;2023-05-08T04:21:04;23.17;;;11.40;;
23506;SDS011;11930;53.076;18.250;2023-05-08T04:23:34;23.20;;;10.47;;
23506;SDS011;11930;53.076;18.250;2023-05-08T04:26:01;20.80;;;11.20;;
23506;SDS011;11930;53.076;18.250;2023-05-08T04:28:28;19.50;;;9.80;;
23506;SDS011;11930;53.076;18.250;2023-05-08T04:30:55;15.97;;;8.77;;
23506;SDS011;11930;53.076;18.250;2023-05-08T04:33:22;15.33;;;8.27;;
23506;SDS011;11930;53.076;18.250;2023-05-08T04:35:49;16.97;;;8.77;;
23506;SDS011;11930;53.076;18.250;2023-05-08T04:38:17;12.13;;;6.97;;
23506;SDS011;11930;53.076;18.250;2023-05-08T04:40:43;13.63;;;6.20;;
23506;SDS011;11930;53.076;18.250;2023-05-08T04:43:10;12.73;;;6.50;;
23506;SDS011;11930;53.076;18.250;2023-05-08T04:45:37;11.77;;;6.63;;
23506;SDS011;11930;53.076;18.250;2023-05-08T04:48:04;10.70;;;5.67;;
23506;SDS011;11930;53.076;18.250;2023-05-08T04:50:30;10.40;;;6.10;;
23506;SDS011;11930;53.076;18.250;2023-05-08T04:52:56;11.00;;;6.23;;
23506;SDS011;11930;53.076;18.250;2023-05-08T04:55:23;9.90;;;5.77;;
23506;SDS011;11930;53.076;18.250;2023-05-08T04:57:49;8.53;;;5.67;;
23506;SDS011;11930;53.076;18.250;2023-05-08T05:00:15;7.33;;;5.63;;
23506;SDS011;11930;53.076;18.250;2023-05-08T05:02:42;10.13;;;6.30;;
23506;SDS011;11930;53.076;18.250;2023-05-08T05:05:09;8.37;;;5.63;;
23506;SDS011;11930;53.076;18.250;2023-05-08T05:07:35;10.40;;;5.53;;
23506;SDS011;11930;53.076;18.250;2023-05-08T05:10:02;7.30;;;5.40;;
23506;SDS011;11930;53.076;18.250;2023-05-08T05:12:30;9.20;;;6.17;;
23506;SDS011;11930;53.076;18.250;2023-05-08T05:14:56;7.97;;;6.17;;
23506;SDS011;11930;53.076;18.250;2023-05-08T05:17:23;10.10;;;6.73;;
23506;SDS011;11930;53.076;18.250;2023-05-08T05:19:49;9.00;;;6.35;;
23506;SDS011;11930;53.076;18.250;2023-05-08T05:22:16;9.37;;;6.47;;
23506;SDS011;11930;53.076;18.250;2023-05-08T05:24:41;9.23;;;5.78;;
23506;SDS011;11930;53.076;18.250;2023-05-08T05:27:07;11.63;;;6.90;;
23506;SDS011;11930;53.076;18.250;2023-05-08T05:29:43;9.48;;;6.50;;
23506;SDS011;11930;53.076;18.250;2023-05-08T05:32:09;9.27;;;6.40;;
23506;SDS011;11930;53.076;18.250;2023-05-08T05:34:36;10.25;;;6.88;;
23506;SDS011;11930;53.076;18.250;2023-05-08T05:37:02;10.43;;;7.07;;
23506;SDS011;11930;53.076;18.250;2023-05-08T05:39:28;10.15;;;6.93;;
23506;SDS011;11930;53.076;18.250;2023-05-08T05:41:55;10.50;;;7.32;;
23506;SDS011;11930;53.076;18.250;2023-05-08T05:44:21;9.48;;;6.15;;
23506;SDS011;11930;53.076;18.250;2023-05-08T05:46:47;11.60;;;6.67;;
23506;SDS011;11930;53.076;18.250;2023-05-08T05:49:13;13.63;;;7.15;;
23506;SDS011;11930;53.076;18.250;2023-05-08T05:51:39;9.77;;;6.65;;
23506;SDS011;11930;53.076;18.250;2023-05-08T05:54:06;9.90;;;7.03;;
23506;SDS011;11930;53.076;18.250;2023-05-08T05:56:34;10.50;;;7.43;;
23506;SDS011;11930;53.076;18.250;2023-05-08T05:59:00;10.77;;;7.72;;
23506;SDS011;11930;53.076;18.250;2023-05-08T06:01:26;11.75;;;8.27;;
23506;SDS011;11930;53.076;18.250;2023-05-08T06:03:53;14.70;;;9.45;;
23506;SDS011;11930;53.076;18.250;2023-05-08T06:06:19;14.88;;;9.50;;
23506;SDS011;11930;53.076;18.250;2023-05-08T06:08:46;18.05;;;10.77;;
23506;SDS011;11930;53.076;18.250;2023-05-08T06:11:13;14.55;;;9.60;;
23506;SDS011;11930;53.076;18.250;2023-05-08T06:13:39;13.48;;;8.15;;
23506;SDS011;11930;53.076;18.250;2023-05-08T06:16:06;10.27;;;7.45;;
23506;SDS011;11930;53.076;18.250;2023-05-08T06:18:32;10.73;;;7.37;;
23506;SDS011;11930;53.076;18.250;2023-05-08T06:20:58;9.00;;;5.80;;
23506;SDS011;11930;53.076;18.250;2023-05-08T06:23:25;8.97;;;5.17;;
23506;SDS011;11930;53.076;18.250;2023-05-08T06:25:52;8.80;;;5.40;;
23506;SDS011;11930;53.076;18.250;2023-05-08T06:28:18;8.37;;;5.07;;
23506;SDS011;11930;53.076;18.250;2023-05-08T06:30:44;9.40;;;5.27;;
23506;SDS011;11930;53.076;18.250;2023-05-08T06:33:10;8.50;;;4.90;;
23506;SDS011;11930;53.076;18.250;2023-05-08T06:35:37;7.90;;;4.83;;
23506;SDS011;11930;53.076;18.250;2023-05-08T06:38:03;7.73;;;4.90;;
23506;SDS011;11930;53.076;18.250;2023-05-08T06:40:29;8.83;;;5.53;;
23506;SDS011;11930;53.076;18.250;2023-05-08T06:42:55;7.60;;;5.00;;
23506;SDS011;11930;53.076;18.250;2023-05-08T06:45:21;6.23;;;4.30;;
23506;SDS011;11930;53.076;18.250;2023-05-08T06:47:47;6.53;;;4.10;;
23506;SDS011;11930;53.076;18.250;2023-05-08T06:50:13;8.00;;;3.37;;
23506;SDS011;11930;53.076;18.250;2023-05-08T06:52:39;5.53;;;3.37;;
23506;SDS011;11930;53.076;18.250;2023-05-08T06:55:05;6.63;;;3.30;;
23506;SDS011;11930;53.076;18.250;2023-05-08T06:57:31;5.67;;;3.83;;
23506;SDS011;11930;53.076;18.250;2023-05-08T06:59:58;7.33;;;4.10;;
23506;SDS011;11930;53.076;18.250;2023-05-08T07:02:23;5.87;;;3.70;;
23506;SDS011;11930;53.076;18.250;2023-05-08T07:04:50;4.93;;;3.20;;
23506;SDS011;11930;53.076;18.250;2023-05-08T07:07:15;7.53;;;4.50;;
23506;SDS011;11930;53.076;18.250;2023-05-08T07:09:42;9.83;;;5.20;;
23506;SDS011;11930;53.076;18.250;2023-05-08T07:12:07;7.28;;;3.85;;
23506;SDS011;11930;53.076;18.250;2023-05-08T07:14:34;7.55;;;4.13;;
23506;SDS011;11930;53.076;18.250;2023-05-08T07:17:03;9.15;;;4.30;;
23506;SDS011;11930;53.076;18.250;2023-05-08T07:19:32;8.43;;;4.70;;
23506;SDS011;11930;53.076;18.250;2023-05-08T07:21:59;5.15;;;3.65;;
23506;SDS011;11930;53.076;18.250;2023-05-08T07:24:26;6.88;;;4.55;;
23506;SDS011;11930;53.076;18.250;2023-05-08T07:26:52;4.88;;;3.55;;
23506;SDS011;11930;53.076;18.250;2023-05-08T07:29:18;5.20;;;3.28;;
23506;SDS011;11930;53.076;18.250;2023-05-08T07:31:44;5.00;;;3.22;;
23506;SDS011;11930;53.076;18.250;2023-05-08T07:34:13;5.78;;;3.58;;
23506;SDS011;11930;53.076;18.250;2023-05-08T07:36:39;6.07;;;3.65;;
23506;SDS011;11930;53.076;18.250;2023-05-08T07:39:05;4.45;;;3.10;;
23506;SDS011;11930;53.076;18.250;2023-05-08T07:41:31;5.35;;;3.13;;
23506;SDS011;11930;53.076;18.250;2023-05-08T07:43:57;4.38;;;2.83;;
23506;SDS011;11930;53.076;18.250;2023-05-08T07:46:23;4.10;;;2.47;;
23506;SDS011;11930;53.076;18.250;2023-05-08T07:48:49;3.92;;;2.88;;
23506;SDS011;11930;53.076;18.250;2023-05-08T07:51:15;4.72;;;2.72;;
23506;SDS011;11930;53.076;18.250;2023-05-08T07:53:42;4.57;;;2.80;;
23506;SDS011;11930;53.076;18.250;2023-05-08T07:56:08;4.65;;;2.75;;
23506;SDS011;11930;53.076;18.250;2023-05-08T07:58:34;4.43;;;2.67;;
23506;SDS011;11930;53.076;18.250;2023-05-08T08:01:00;4.18;;;2.58;;
23506;SDS011;11930;53.076;18.250;2023-05-08T08:03:26;4.63;;;2.80;;
23506;SDS011;11930;53.076;18.250;2023-05-08T08:05:52;4.10;;;2.67;;
23506;SDS011;11930;53.076;18.250;2023-05-08T08:08:20;4.82;;;2.50;;
23506;SDS011;11930;53.076;18.250;2023-05-08T08:10:45;5.07;;;2.65;;
23506;SDS011;11930;53.076;18.250;2023-05-08T08:13:12;5.30;;;3.10;;
23506;SDS011;11930;53.076;18.250;2023-05-08T08:15:37;6.68;;;4.72;;
23506;SDS011;11930;53.076;18.250;2023-05-08T08:18:04;4.82;;;3.13;;
23506;SDS011;11930;53.076;18.250;2023-05-08T08:20:30;5.82;;;3.13;;
23506;SDS011;11930;53.076;18.250;2023-05-08T08:22:56;4.25;;;3.00;;
23506;SDS011;11930;53.076;18.250;2023-05-08T08:25:22;6.82;;;3.22;;
23506;SDS011;11930;53.076;18.250;2023-05-08T08:27:49;5.53;;;3.10;;
23506;SDS011;11930;53.076;18.250;2023-05-08T08:30:14;4.43;;;3.13;;
23506;SDS011;11930;53.076;18.250;2023-05-08T08:32:40;4.43;;;3.08;;
23506;SDS011;11930;53.076;18.250;2023-05-08T08:35:06;4.90;;;3.03;;
23506;SDS011;11930;53.076;18.250;2023-05-08T08:37:33;4.88;;;3.30;;
23506;SDS011;11930;53.076;18.250;2023-05-08T08:39:59;6.18;;;3.47;;
23506;SDS011;11930;53.076;18.250;2023-05-08T08:42:26;6.03;;;3.45;;
23506;SDS011;11930;53.076;18.250;2023-05-08T08:44:54;5.57;;;3.33;;
23506;SDS011;11930;53.076;18.250;2023-05-08T08:47:21;5.53;;;3.47;;
23506;SDS011;11930;53.076;18.250;2023-05-08T08:49:52;5.00;;;3.30;;
23506;SDS011;11930;53.076;18.250;2023-05-08T08:55:14;7.13;;;3.20;;
23506;SDS011;11930;53.076;18.250;2023-05-08T08:57:47;6.35;;;3.17;;
23506;SDS011;11930;53.076;18.250;2023-05-08T09:00:26;6.13;;;3.13;;
23506;SDS011;11930;53.076;18.250;2023-05-08T09:02:54;6.22;;;3.05;;
23506;SDS011;11930;53.076;18.250;2023-05-08T09:05:21;4.88;;;3.38;;
23506;SDS011;11930;53.076;18.250;2023-05-08T09:07:48;8.57;;;5.32;;
23506;SDS011;11930;53.076;18.250;2023-05-08T09:10:14;6.40;;;3.20;;
23506;SDS011;11930;53.076;18.250;2023-05-08T09:12:41;4.75;;;3.05;;
23506;SDS011;11930;53.076;18.250;2023-05-08T09:15:09;4.82;;;3.08;;
23506;SDS011;11930;53.076;18.250;2023-05-08T09:17:35;3.40;;;2.28;;
23506;SDS011;11930;53.076;18.250;2023-05-08T09:20:01;6.03;;;2.80;;
23506;SDS011;11930;53.076;18.250;2023-05-08T09:22:28;5.65;;;3.28;;
23506;SDS011;11930;53.076;18.250;2023-05-08T09:24:59;3.63;;;2.17;;
23506;SDS011;11930;53.076;18.250;2023-05-08T09:27:26;5.18;;;2.85;;
23506;SDS011;11930;53.076;18.250;2023-05-08T09:32:30;4.95;;;2.42;;
23506;SDS011;11930;53.076;18.250;2023-05-08T09:34:59;4.43;;;2.22;;
23506;SDS011;11930;53.076;18.250;2023-05-08T09:37:26;5.32;;;2.45;;
23506;SDS011;11930;53.076;18.250;2023-05-08T09:39:53;3.83;;;2.45;;
23506;SDS011;11930;53.076;18.250;2023-05-08T09:42:19;4.43;;;2.30;;
23506;SDS011;11930;53.076;18.250;2023-05-08T09:44:46;5.13;;;2.30;;
23506;SDS011;11930;53.076;18.250;2023-05-08T09:47:15;4.80;;;2.50;;
23506;SDS011;11930;53.076;18.250;2023-05-08T09:49:54;5.32;;;2.53;;
23506;SDS011;11930;53.076;18.250;2023-05-08T09:52:22;5.13;;;2.53;;
23506;SDS011;11930;53.076;18.250;2023-05-08T09:54:55;6.07;;;2.90;;
23506;SDS011;11930;53.076;18.250;2023-05-08T09:57:26;5.43;;;2.80;;
23506;SDS011;11930;53.076;18.250;2023-05-08T10:00:00;5.03;;;3.00;;
23506;SDS011;11930;53.076;18.250;2023-05-08T10:02:28;4.53;;;2.58;;
23506;SDS011;11930;53.076;18.250;2023-05-08T10:04:54;4.45;;;2.40;;
23506;SDS011;11930;53.076;18.250;2023-05-08T10:07:31;6.05;;;2.50;;
23506;SDS011;11930;53.076;18.250;2023-05-08T10:10:04;5.35;;;2.78;;
23506;SDS011;11930;53.076;18.250;2023-05-08T10:12:31;4.10;;;2.58;;
23506;SDS011;11930;53.076;18.250;2023-05-08T10:14:58;4.57;;;2.60;;
23506;SDS011;11930;53.076;18.250;2023-05-08T10:20:17;4.65;;;2.92;;
23506;SDS011;11930;53.076;18.250;2023-05-08T10:22:45;5.32;;;2.92;;
23506;SDS011;11930;53.076;18.250;2023-05-08T10:25:16;8.27;;;4.30;;
23506;SDS011;11930;53.076;18.250;2023-05-08T10:27:50;5.50;;;2.90;;
23506;SDS011;11930;53.076;18.250;2023-05-08T10:30:26;4.57;;;2.92;;
23506;SDS011;11930;53.076;18.250;2023-05-08T10:32:54;6.05;;;2.90;;
23506;SDS011;11930;53.076;18.250;2023-05-08T10:35:23;5.40;;;3.60;;
23506;SDS011;11930;53.076;18.250;2023-05-08T10:37:49;5.30;;;3.20;;
23506;SDS011;11930;53.076;18.250;2023-05-08T10:40:17;4.07;;;2.67;;
23506;SDS011;11930;53.076;18.250;2023-05-08T10:42:46;6.40;;;3.13;;
23506;SDS011;11930;53.076;18.250;2023-05-08T10:45:12;4.20;;;2.90;;
23506;SDS011;11930;53.076;18.250;2023-05-08T10:47:50;6.45;;;3.05;;
23506;SDS011;11930;53.076;18.250;2023-05-08T10:50:32;3.58;;;2.70;;
23506;SDS011;11930;53.076;18.250;2023-05-08T10:55:34;7.18;;;2.58;;
23506;SDS011;11930;53.076;18.250;2023-05-08T11:03:15;5.75;;;2.92;;
23506;SDS011;11930;53.076;18.250;2023-05-08T11:05:44;24.92;;;14.57;;
23506;SDS011;11930;53.076;18.250;2023-05-08T11:08:16;7.22;;;3.92;;
23506;SDS011;11930;53.076;18.250;2023-05-08T11:10:43;5.03;;;3.28;;
23506;SDS011;11930;53.076;18.250;2023-05-08T11:13:17;5.00;;;3.35;;
23506;SDS011;11930;53.076;18.250;2023-05-08T11:15:48;5.40;;;3.45;;
23506;SDS011;11930;53.076;18.250;2023-05-08T11:18:15;9.02;;;3.33;;
23506;SDS011;11930;53.076;18.250;2023-05-08T11:20:54;7.35;;;3.65;;
23506;SDS011;11930;53.076;18.250;2023-05-08T11:23:31;5.50;;;3.50;;
23506;SDS011;11930;53.076;18.250;2023-05-08T11:26:01;4.78;;;2.75;;
23506;SDS011;11930;53.076;18.250;2023-05-08T11:31:18;4.30;;;2.72;;
23506;SDS011;11930;53.076;18.250;2023-05-08T11:33:45;5.57;;;2.67;;
23506;SDS011;11930;53.076;18.250;2023-05-08T11:36:12;5.25;;;2.72;;
23506;SDS011;11930;53.076;18.250;2023-05-08T11:38:43;5.72;;;3.63;;
23506;SDS011;11930;53.076;18.250;2023-05-08T11:41:31;7.75;;;3.38;;
23506;SDS011;11930;53.076;18.250;2023-05-08T11:46:43;5.15;;;2.53;;
23506;SDS011;11930;53.076;18.250;2023-05-08T11:49:17;3.92;;;2.45;;
23506;SDS011;11930;53.076;18.250;2023-05-08T11:51:46;4.00;;;2.40;;
23506;SDS011;11930;53.076;18.250;2023-05-08T11:54:15;4.18;;;2.70;;
23506;SDS011;11930;53.076;18.250;2023-05-08T11:56:49;5.60;;;2.60;;
23506;SDS011;11930;53.076;18.250;2023-05-08T11:59:17;3.80;;;2.25;;
23506;SDS011;11930;53.076;18.250;2023-05-08T12:01:43;3.17;;;2.20;;
23506;SDS011;11930;53.076;18.250;2023-05-08T12:04:10;5.20;;;2.70;;
23506;SDS011;11930;53.076;18.250;2023-05-08T12:06:38;3.58;;;2.33;;
23506;SDS011;11930;53.076;18.250;2023-05-08T12:09:09;2.90;;;2.10;;
23506;SDS011;11930;53.076;18.250;2023-05-08T12:11:40;5.28;;;2.85;;
23506;SDS011;11930;53.076;18.250;2023-05-08T12:14:08;4.35;;;2.42;;
23506;SDS011;11930;53.076;18.250;2023-05-08T12:16:35;5.00;;;2.55;;
23506;SDS011;11930;53.076;18.250;2023-05-08T12:19:03;4.40;;;2.70;;
23506;SDS011;11930;53.076;18.250;2023-05-08T12:21:33;6.50;;;2.70;;
23506;SDS011;11930;53.076;18.250;2023-05-08T12:24:00;3.95;;;2.53;;
23506;SDS011;11930;53.076;18.250;2023-05-08T12:26:33;5.05;;;2.30;;
23506;SDS011;11930;53.076;18.250;2023-05-08T12:29:00;9.15;;;2.63;;
23506;SDS011;11930;53.076;18.250;2023-05-08T12:31:26;5.82;;;2.50;;
23506;SDS011;11930;53.076;18.250;2023-05-08T12:33:52;4.97;;;2.30;;
23506;SDS011;11930;53.076;18.250;2023-05-08T12:36:19;4.05;;;2.17;;
23506;SDS011;11930;53.076;18.250;2023-05-08T12:38:45;3.38;;;2.20;;
23506;SDS011;11930;53.076;18.250;2023-05-08T12:41:11;6.60;;;2.53;;
23506;SDS011;11930;53.076;18.250;2023-05-08T12:43:37;4.07;;;2.42;;
23506;SDS011;11930;53.076;18.250;2023-05-08T12:46:03;4.78;;;2.60;;
23506;SDS011;11930;53.076;18.250;2023-05-08T12:48:30;4.00;;;2.20;;
23506;SDS011;11930;53.076;18.250;2023-05-08T12:51:02;3.30;;;2.10;;
23506;SDS011;11930;53.076;18.250;2023-05-08T12:53:30;3.78;;;2.15;;
23506;SDS011;11930;53.076;18.250;2023-05-08T12:55:59;4.43;;;2.20;;
23506;SDS011;11930;53.076;18.250;2023-05-08T12:58:28;4.97;;;2.50;;
23506;SDS011;11930;53.076;18.250;2023-05-08T13:03:32;4.07;;;2.30;;
23506;SDS011;11930;53.076;18.250;2023-05-08T13:05:58;4.55;;;2.40;;
23506;SDS011;11930;53.076;18.250;2023-05-08T13:08:28;4.93;;;2.28;;
23506;SDS011;11930;53.076;18.250;2023-05-08T13:10:58;3.40;;;2.42;;
23506;SDS011;11930;53.076;18.250;2023-05-08T13:13:26;5.05;;;2.00;;
23506;SDS011;11930;53.076;18.250;2023-05-08T13:15:54;5.47;;;2.50;;
23506;SDS011;11930;53.076;18.250;2023-05-08T13:18:25;4.38;;;2.40;;
23506;SDS011;11930;53.076;18.250;2023-05-08T13:20:52;3.63;;;2.72;;
23506;SDS011;11930;53.076;18.250;2023-05-08T13:23:19;6.32;;;3.10;;
23506;SDS011;11930;53.076;18.250;2023-05-08T13:25:45;4.15;;;2.50;;
23506;SDS011;11930;53.076;18.250;2023-05-08T13:28:11;5.72;;;2.47;;
23506;SDS011;11930;53.076;18.250;2023-05-08T13:30:37;5.40;;;2.22;;
23506;SDS011;11930;53.076;18.250;2023-05-08T13:33:03;3.63;;;2.47;;
23506;SDS011;11930;53.076;18.250;2023-05-08T13:35:30;5.07;;;2.33;;
23506;SDS011;11930;53.076;18.250;2023-05-08T13:37:57;7.00;;;2.70;;
23506;SDS011;11930;53.076;18.250;2023-05-08T13:40:23;5.18;;;2.67;;
23506;SDS011;11930;53.076;18.250;2023-05-08T13:42:50;3.38;;;2.25;;
23506;SDS011;11930;53.076;18.250;2023-05-08T13:45:16;6.65;;;2.55;;
23506;SDS011;11930;53.076;18.250;2023-05-08T13:47:43;3.60;;;2.42;;
23506;SDS011;11930;53.076;18.250;2023-05-08T13:50:10;2.78;;;1.77;;
23506;SDS011;11930;53.076;18.250;2023-05-08T13:52:38;4.90;;;2.10;;
23506;SDS011;11930;53.076;18.250;2023-05-08T13:55:05;4.28;;;2.85;;
23506;SDS011;11930;53.076;18.250;2023-05-08T13:57:32;5.40;;;2.17;;
23506;SDS011;11930;53.076;18.250;2023-05-08T13:59:58;4.55;;;2.45;;
23506;SDS011;11930;53.076;18.250;2023-05-08T14:02:25;3.45;;;2.20;;
23506;SDS011;11930;53.076;18.250;2023-05-08T14:04:52;4.55;;;2.00;;
23506;SDS011;11930;53.076;18.250;2023-05-08T14:07:18;3.83;;;2.03;;
23506;SDS011;11930;53.076;18.250;2023-05-08T14:09:44;3.97;;;2.45;;
23506;SDS011;11930;53.076;18.250;2023-05-08T14:12:11;4.75;;;2.28;;
23506;SDS011;11930;53.076;18.250;2023-05-08T14:14:37;4.00;;;2.33;;
23506;SDS011;11930;53.076;18.250;2023-05-08T14:17:03;3.88;;;2.33;;
23506;SDS011;11930;53.076;18.250;2023-05-08T14:19:30;6.93;;;2.70;;
23506;SDS011;11930;53.076;18.250;2023-05-08T14:21:56;3.80;;;2.38;;
23506;SDS011;11930;53.076;18.250;2023-05-08T14:24:23;4.00;;;2.38;;
23506;SDS011;11930;53.076;18.250;2023-05-08T14:26:49;3.92;;;2.30;;
23506;SDS011;11930;53.076;18.250;2023-05-08T14:29:15;2.90;;;1.90;;
23506;SDS011;11930;53.076;18.250;2023-05-08T14:31:41;5.20;;;2.35;;
23506;SDS011;11930;53.076;18.250;2023-05-08T14:34:07;3.78;;;2.28;;
23506;SDS011;11930;53.076;18.250;2023-05-08T14:36:33;2.80;;;2.10;;
23506;SDS011;11930;53.076;18.250;2023-05-08T14:38:59;5.85;;;2.53;;
23506;SDS011;11930;53.076;18.250;2023-05-08T14:41:28;11.00;;;2.35;;
23506;SDS011;11930;53.076;18.250;2023-05-08T14:43:55;5.10;;;2.10;;
23506;SDS011;11930;53.076;18.250;2023-05-08T14:46:22;5.32;;;2.45;;
23506;SDS011;11930;53.076;18.250;2023-05-08T14:48:49;7.18;;;2.28;;
23506;SDS011;11930;53.076;18.250;2023-05-08T14:51:16;3.47;;;1.92;;
23506;SDS011;11930;53.076;18.250;2023-05-08T14:53:43;4.47;;;2.10;;
23506;SDS011;11930;53.076;18.250;2023-05-08T14:56:10;5.07;;;2.13;;
23506;SDS011;11930;53.076;18.250;2023-05-08T14:58:38;4.18;;;2.25;;
23506;SDS011;11930;53.076;18.250;2023-05-08T15:01:04;3.10;;;1.92;;
23506;SDS011;11930;53.076;18.250;2023-05-08T15:03:30;3.97;;;2.15;;
23506;SDS011;11930;53.076;18.250;2023-05-08T15:05:56;3.45;;;2.10;;
23506;SDS011;11930;53.076;18.250;2023-05-08T15:08:22;3.70;;;1.98;;
23506;SDS011;11930;53.076;18.250;2023-05-08T15:10:49;3.13;;;2.38;;
23506;SDS011;11930;53.076;18.250;2023-05-08T15:13:15;6.78;;;2.28;;
23506;SDS011;11930;53.076;18.250;2023-05-08T15:15:41;4.32;;;2.45;;
23506;SDS011;11930;53.076;18.250;2023-05-08T15:18:07;6.13;;;2.45;;
23506;SDS011;11930;53.076;18.250;2023-05-08T15:20:33;3.88;;;2.30;;
23506;SDS011;11930;53.076;18.250;2023-05-08T15:22:59;4.00;;;2.17;;
23506;SDS011;11930;53.076;18.250;2023-05-08T15:25:25;4.53;;;2.30;;